createdAt,value
2023-03-13T00:07:38.577Z,11.97
2023-03-13T00:37:41.424Z,21.63
2023-03-13T01:07:45.212Z,15.70
2023-03-13T01:37:48.173Z,23.10
2023-03-13T02:07:51.577Z,24.63
2023-03-13T02:37:54.442Z,18.97
2023-03-13T03:07:59.147Z,15.67
2023-03-13T03:38:01.974Z,17.00
2023-03-13T04:08:06.211Z,8.30
2023-03-13T04:38:09.136Z,15.30
2023-03-13T05:08:13.404Z,18.93
2023-03-13T05:38:16.318Z,16.20
2023-03-13T06:08:21.857Z,12.67
2023-03-13T06:38:24.803Z,19.13
2023-03-13T07:08:30.844Z,17.47
2023-03-13T07:38:33.795Z,11.60
2023-03-13T08:08:37.611Z,16.57
2023-03-13T08:38:40.482Z,16.23
2023-03-13T09:08:44.044Z,19.93
2023-03-13T09:38:46.882Z,15.50
2023-03-13T10:08:51.303Z,18.87
2023-03-13T10:38:54.133Z,20.73
2023-03-13T11:09:00.613Z,14.50
2023-03-13T11:39:03.503Z,18.23
2023-03-13T12:09:08.026Z,13.90
2023-03-13T12:39:11.223Z,13.97
2023-03-13T13:09:15.977Z,11.03
2023-03-13T13:39:18.782Z,8.47
2023-03-13T14:09:22.795Z,6.45
2023-03-13T14:39:26.003Z,8.60
2023-03-13T15:09:29.530Z,6.60
2023-03-13T15:39:33.080Z,7.15
2023-03-13T16:09:37.501Z,6.03
2023-03-13T16:39:40.359Z,6.15
2023-03-13T17:09:44.974Z,7.77
2023-03-13T17:39:47.984Z,10.60
2023-03-13T18:09:52.547Z,14.57
2023-03-13T18:39:55.658Z,18.43
2023-03-13T19:09:59.612Z,16.07
2023-03-13T19:40:02.662Z,19.87
2023-03-13T20:10:07.908Z,19.17
2023-03-13T20:40:10.797Z,17.57
2023-03-13T21:10:15.146Z,11.87
2023-03-13T21:40:17.988Z,11.03
2023-03-13T22:10:22.510Z,9.10
2023-03-13T22:40:26.575Z,9.63
2023-03-13T23:10:29.549Z,10.93
2023-03-13T23:40:33.052Z,5.75
